Bright Hope — HPTM — position and weather

sailwx.info

Track history (hours):
 
Tides and Currents Weather Stations Pressure Air Temp Water Temp Dewpoint Dewpoint Depression Visibility Wind Speed Wind Dir Waves Ship Positions

Bright Hope

Last reported at 2015-Mar-02 06:25 UTC. Time now 2015-Mar-02 07:26 UTC.
Position N 34°14' E 135°05'.

Length 170 m; draft 5.7 m.

Type: Cargo ship. MMSI: 371117000.

Date/timePositionNaut miles runAvg speedWind from/ knotsBaromVisibWave heightAir tempDewpointWater temp
2015-Mar-02 06:25N 34°14' E 135°05'0 0.0
2015-Mar-02 05:31N 34°14' E 135°05'0 0.0
2015-Mar-02 04:34N 34°14' E 135°05'0 0.0
2015-Mar-02 03:34N 34°14' E 135°05'0 0.0
2015-Mar-02 02:31N 34°14' E 135°05'0 0.0
2015-Mar-02 01:33N 34°14' E 135°05'0 0.0
2015-Mar-02 00:30N 34°14' E 135°05'0 0.0
2015-Mar-01 23:34N 34°14' E 135°05'0 0.0
2015-Mar-01 22:34N 34°14' E 135°05'0 0.0
2015-Mar-01 21:34N 34°14' E 135°05'0 0.0
2015-Mar-01 20:34N 34°14' E 135°05'0 0.0
2015-Mar-01 19:33N 34°14' E 135°05'0 0.0
2015-Mar-01 18:34N 34°14' E 135°05'0 0.0
2015-Mar-01 17:33N 34°14' E 135°05'2 1.8
2015-Mar-01 16:33N 34°12' E 135°04'1010.5
2015-Mar-01 15:33N 34°02' E 135°01'  
2015-Feb-26 02:11N 22°51' E 120°01'913.8
2015-Feb-26 01:33N 22°44' E 120°06'1211.8
2015-Feb-26 00:33N 22°37' E 120°16'1 1.4
2015-Feb-25 23:31N 22°36' E 120°17'0 0.0
2015-Feb-25 22:31N 22°36' E 120°17'0 0.0
2015-Feb-25 21:31N 22°36' E 120°17'0 0.0
2015-Feb-25 20:31N 22°36' E 120°17'0 0.0
2015-Feb-25 19:31N 22°36' E 120°17'0 0.0
2015-Feb-25 18:31N 22°36' E 120°17'0 0.0
2015-Feb-25 17:31N 22°36' E 120°17'0 0.0
2015-Feb-25 16:31N 22°36' E 120°17'0 0.0
2015-Feb-25 15:31N 22°36' E 120°17'0 0.0
2015-Feb-25 14:25N 22°36' E 120°17'0 0.0
2015-Feb-25 13:31N 22°36' E 120°17'0 0.0
2015-Feb-25 12:31N 22°36' E 120°17'0 0.0
2015-Feb-25 11:31N 22°36' E 120°17'0 0.0
2015-Feb-25 10:19N 22°36' E 120°17'0 0.0
2015-Feb-25 09:31N 22°36' E 120°17'0 0.0
2015-Feb-25 08:31N 22°36' E 120°17'0 0.0
2015-Feb-25 07:25N 22°36' E 120°17'0 0.0
2015-Feb-25 06:31N 22°36' E 120°17'0 0.0
2015-Feb-25 05:31N 22°36' E 120°17'0 0.0
2015-Feb-25 04:19N 22°36' E 120°17'0 0.0
2015-Feb-25 03:31N 22°36' E 120°17'0 0.0
2015-Feb-25 02:31N 22°36' E 120°17'0 0.0
2015-Feb-25 01:31N 22°36' E 120°17'0 0.0
2015-Feb-25 00:31N 22°36' E 120°17'0 0.4
2015-Feb-24 23:34N 22°37' E 120°17'6 6.0
2015-Feb-24 22:33N 22°37' E 120°10'7 7.2
2015-Feb-24 21:34N 22°41' E 120°04'9 8.5
2015-Feb-24 20:33N 22°48' E 119°58'1110.4
2015-Feb-24 19:30N 22°58' E 119°54'  
2015-Feb-21 01:12N 33°56' E 134°54'1012.4
2015-Feb-21 00:25N 34°06' E 134°55'1011.2
2015-Feb-20 23:33N 34°13' E 135°02'4 3.7
2015-Feb-20 22:22N 34°14' E 135°07'0 0.0
2015-Feb-20 21:28N 34°14' E 135°07'0 0.0
2015-Feb-20 20:33N 34°14' E 135°07'0 0.0
2015-Feb-20 19:33N 34°14' E 135°07'0 0.0
2015-Feb-20 18:33N 34°14' E 135°07'0 0.0
2015-Feb-20 17:33N 34°14' E 135°07'0 0.0
2015-Feb-20 16:33N 34°14' E 135°07'0 0.0
2015-Feb-20 15:33N 34°14' E 135°07'0 0.0
2015-Feb-20 14:33N 34°14' E 135°07'0 0.0
2015-Feb-20 13:33N 34°14' E 135°07'0 0.0
2015-Feb-20 12:33N 34°14' E 135°07'0 0.0
2015-Feb-20 11:33N 34°14' E 135°07'0 0.0
2015-Feb-20 10:33N 34°14' E 135°07'0 0.0
2015-Feb-20 09:33N 34°14' E 135°07'0 0.0
2015-Feb-20 08:33N 34°14' E 135°07'0 0.0
2015-Feb-20 07:33N 34°14' E 135°07'0 0.0
2015-Feb-20 06:33N 34°14' E 135°07'  
Track history (hours):
 
Tides and Currents Weather Stations Pressure Air Temp Water Temp Dewpoint Dewpoint Depression Visibility Wind Speed Wind Dir Waves Ship Positions

Bright Hope

Last reported at 2015-Mar-02 06:25 UTC. Time now 2015-Mar-02 07:26 UTC.
Position N 34°14' E 135°05'.

Length 170 m; draft 5.7 m.

Type: Cargo ship. MMSI: 371117000.

Date/timePositionNaut miles runAvg speedWind from/ knotsBaromVisibWave heightAir tempDewpointWater temp
2015-Mar-02 06:25N 34°14' E 135°05'0 0.0
2015-Mar-02 05:31N 34°14' E 135°05'0 0.0
2015-Mar-02 04:34N 34°14' E 135°05'0 0.0
2015-Mar-02 03:34N 34°14' E 135°05'0 0.0
2015-Mar-02 02:31N 34°14' E 135°05'0 0.0
2015-Mar-02 01:33N 34°14' E 135°05'0 0.0
2015-Mar-02 00:30N 34°14' E 135°05'0 0.0
2015-Mar-01 23:34N 34°14' E 135°05'0 0.0
2015-Mar-01 22:34N 34°14' E 135°05'0 0.0
2015-Mar-01 21:34N 34°14' E 135°05'0 0.0
2015-Mar-01 20:34N 34°14' E 135°05'0 0.0
2015-Mar-01 19:33N 34°14' E 135°05'0 0.0
2015-Mar-01 18:34N 34°14' E 135°05'0 0.0
2015-Mar-01 17:33N 34°14' E 135°05'2 1.8
2015-Mar-01 16:33N 34°12' E 135°04'1010.5
2015-Mar-01 15:33N 34°02' E 135°01'  
2015-Feb-26 02:11N 22°51' E 120°01'913.8
2015-Feb-26 01:33N 22°44' E 120°06'1211.8
2015-Feb-26 00:33N 22°37' E 120°16'1 1.4
2015-Feb-25 23:31N 22°36' E 120°17'0 0.0
2015-Feb-25 22:31N 22°36' E 120°17'0 0.0
2015-Feb-25 21:31N 22°36' E 120°17'0 0.0
2015-Feb-25 20:31N 22°36' E 120°17'0 0.0
2015-Feb-25 19:31N 22°36' E 120°17'0 0.0
2015-Feb-25 18:31N 22°36' E 120°17'0 0.0
2015-Feb-25 17:31N 22°36' E 120°17'0 0.0
2015-Feb-25 16:31N 22°36' E 120°17'0 0.0
2015-Feb-25 15:31N 22°36' E 120°17'0 0.0
2015-Feb-25 14:25N 22°36' E 120°17'0 0.0
2015-Feb-25 13:31N 22°36' E 120°17'0 0.0
2015-Feb-25 12:31N 22°36' E 120°17'0 0.0
2015-Feb-25 11:31N 22°36' E 120°17'0 0.0
2015-Feb-25 10:19N 22°36' E 120°17'0 0.0
2015-Feb-25 09:31N 22°36' E 120°17'0 0.0
2015-Feb-25 08:31N 22°36' E 120°17'0 0.0
2015-Feb-25 07:25N 22°36' E 120°17'0 0.0
2015-Feb-25 06:31N 22°36' E 120°17'0 0.0
2015-Feb-25 05:31N 22°36' E 120°17'0 0.0
2015-Feb-25 04:19N 22°36' E 120°17'0 0.0
2015-Feb-25 03:31N 22°36' E 120°17'0 0.0
2015-Feb-25 02:31N 22°36' E 120°17'0 0.0
2015-Feb-25 01:31N 22°36' E 120°17'0 0.0
2015-Feb-25 00:31N 22°36' E 120°17'0 0.4
2015-Feb-24 23:34N 22°37' E 120°17'6 6.0
2015-Feb-24 22:33N 22°37' E 120°10'7 7.2
2015-Feb-24 21:34N 22°41' E 120°04'9 8.5
2015-Feb-24 20:33N 22°48' E 119°58'1110.4
2015-Feb-24 19:30N 22°58' E 119°54'  
2015-Feb-21 01:12N 33°56' E 134°54'1012.4
2015-Feb-21 00:25N 34°06' E 134°55'1011.2
2015-Feb-20 23:33N 34°13' E 135°02'4 3.7
2015-Feb-20 22:22N 34°14' E 135°07'0 0.0
2015-Feb-20 21:28N 34°14' E 135°07'0 0.0
2015-Feb-20 20:33N 34°14' E 135°07'0 0.0
2015-Feb-20 19:33N 34°14' E 135°07'0 0.0
2015-Feb-20 18:33N 34°14' E 135°07'0 0.0
2015-Feb-20 17:33N 34°14' E 135°07'0 0.0
2015-Feb-20 16:33N 34°14' E 135°07'0 0.0
2015-Feb-20 15:33N 34°14' E 135°07'0 0.0
2015-Feb-20 14:33N 34°14' E 135°07'0 0.0
2015-Feb-20 13:33N 34°14' E 135°07'0 0.0
2015-Feb-20 12:33N 34°14' E 135°07'0 0.0
2015-Feb-20 11:33N 34°14' E 135°07'0 0.0
2015-Feb-20 10:33N 34°14' E 135°07'0 0.0
2015-Feb-20 09:33N 34°14' E 135°07'0 0.0
2015-Feb-20 08:33N 34°14' E 135°07'0 0.0
2015-Feb-20 07:33N 34°14' E 135°07'0 0.0
2015-Feb-20 06:33N 34°14' E 135°07'  

Dump ship's entire track history